Time;durP1;ratioP1;P1;durP2;ratioP2;P2;SDS_P1;SDS_P2;PMS_P1;PMS_P2;Temp;Humidity;BMP_temperature;BMP_pressure;BME280_temperature;BME280_humidity;BME280_pressure;Samples;Min_cycle;Max_cycle;Signal;HPM_P1;HPM_P2
2022/01/17 00:01:47;;;;;;;8.15;6.45;;;3.70;99.90;;;;;;5055501;28;20053;-84
2022/01/17 00:04:14;;;;;;;9.43;6.93;;;3.70;99.90;;;;;;5056426;28;20080;-85
2022/01/17 00:06:43;;;;;;;9.80;7.15;;;3.80;99.90;;;;;;5055894;28;20065;-85
2022/01/17 00:09:10;;;;;;;8.18;6.88;;;3.80;99.90;;;;;;5039254;28;20462;-83
2022/01/17 00:11:42;;;;;;;10.00;6.55;;;3.80;99.90;;;;;;5037217;28;20132;-84
2022/01/17 00:14:13;;;;;;;9.05;6.85;;;3.80;99.90;;;;;;5051777;28;20050;-84
2022/01/17 00:16:46;;;;;;;8.10;6.28;;;3.80;99.90;;;;;;5036922;28;20201;-85
2022/01/17 00:21:45;;;;;;;7.97;6.32;;;3.80;99.90;;;;;;5036502;28;20057;-84
2022/01/17 00:24:14;;;;;;;8.02;6.97;;;3.80;99.90;;;;;;5051781;28;20076;-84
2022/01/17 00:26:40;;;;;;;7.72;6.60;;;3.80;99.90;;;;;;5052214;28;20092;-85
2022/01/17 00:29:07;;;;;;;10.45;6.53;;;3.80;99.90;;;;;;5056416;28;20531;-85
2022/01/17 00:31:34;;;;;;;7.80;6.30;;;3.80;99.90;;;;;;5056248;28;20052;-85
2022/01/17 00:34:01;;;;;;;8.20;6.85;;;3.80;99.90;;;;;;5058679;28;20053;-85
2022/01/17 00:36:27;;;;;;;8.85;6.35;;;3.80;99.90;;;;;;5060755;28;20462;-85
2022/01/17 00:38:54;;;;;;;9.02;6.75;;;3.90;99.90;;;;;;5055334;28;20484;-84
2022/01/17 00:41:22;;;;;;;7.07;6.10;;;3.90;99.90;;;;;;5054857;28;20136;-84
2022/01/17 00:43:50;;;;;;;6.57;5.88;;;3.90;99.90;;;;;;5055628;28;20088;-84
2022/01/17 00:46:17;;;;;;;9.77;6.78;;;3.90;99.90;;;;;;5055012;28;20446;-86
2022/01/17 00:48:44;;;;;;;8.43;6.93;;;3.90;99.90;;;;;;5054604;28;20133;-84
2022/01/17 00:51:11;;;;;;;7.30;6.50;;;3.90;99.90;;;;;;5054754;28;20116;-84
2022/01/17 00:53:38;;;;;;;7.07;6.00;;;3.90;99.90;;;;;;5055101;28;20128;-85
2022/01/17 00:56:05;;;;;;;8.23;6.25;;;3.90;99.90;;;;;;5054329;28;20136;-86
2022/01/17 00:58:32;;;;;;;7.68;6.80;;;3.90;99.90;;;;;;5054339;28;20065;-84
2022/01/17 01:01:00;;;;;;;6.82;6.03;;;3.90;99.90;;;;;;5054818;28;20049;-84
2022/01/17 01:03:27;;;;;;;9.68;6.15;;;3.90;99.90;;;;;;5054728;28;20060;-84
2022/01/17 01:05:53;;;;;;;7.80;6.50;;;3.90;99.90;;;;;;5054038;28;20084;-84
2022/01/17 01:08:20;;;;;;;6.32;5.57;;;3.90;99.90;;;;;;5054595;28;20477;-84
2022/01/17 01:10:47;;;;;;;7.68;6.32;;;3.90;99.90;;;;;;5053993;28;20092;-84
2022/01/17 01:13:22;;;;;;;7.63;6.30;;;3.90;99.90;;;;;;5053593;28;20128;-84
2022/01/17 01:29:25;;;;;;;6.10;5.50;;;3.80;99.90;;;;;;5037451;28;20501;-84
2022/01/17 01:31:57;;;;;;;7.60;5.70;;;3.80;99.90;;;;;;5052826;28;20120;-83
2022/01/17 01:34:38;;;;;;;7.85;5.75;;;3.90;99.90;;;;;;5037347;28;20045;-84
2022/01/17 01:37:06;;;;;;;5.85;5.28;;;3.90;99.90;;;;;;5052670;28;20125;-84
2022/01/17 01:39:34;;;;;;;5.50;5.00;;;3.90;99.90;;;;;;5053156;28;20050;-84
2022/01/17 01:42:03;;;;;;;6.25;5.63;;;3.80;99.90;;;;;;5037712;28;20140;-84
2022/01/17 01:44:31;;;;;;;6.60;5.53;;;3.70;99.90;;;;;;5036633;28;20046;-84
2022/01/17 01:46:58;;;;;;;5.45;4.95;;;3.70;99.90;;;;;;5052692;28;20561;-85
2022/01/17 01:49:25;;;;;;;5.50;5.00;;;3.60;99.90;;;;;;5037397;28;20458;-84
2022/01/17 01:51:52;;;;;;;6.45;4.97;;;3.60;99.90;;;;;;5052635;28;20137;-84
2022/01/17 01:54:19;;;;;;;7.53;4.57;;;3.60;99.90;;;;;;5052039;28;20091;-84
2022/01/17 01:56:48;;;;;;;4.78;4.32;;;3.60;99.90;;;;;;5049494;28;20059;-84
2022/01/17 01:59:19;;;;;;;4.25;3.95;;;3.60;99.90;;;;;;5048900;28;20053;-84
2022/01/17 02:01:48;;;;;;;4.00;3.70;;;3.50;99.90;;;;;;5048749;28;20465;-83
2022/01/17 02:04:15;;;;;;;4.80;4.30;;;3.60;99.90;;;;;;5033310;28;20076;-83
2022/01/17 02:06:42;;;;;;;5.53;4.18;;;3.60;99.90;;;;;;5048560;28;20054;-83
2022/01/17 02:09:09;;;;;;;4.63;4.15;;;3.60;99.90;;;;;;5048527;28;20622;-84
2022/01/17 02:11:37;;;;;;;3.85;3.55;;;3.50;99.90;;;;;;5036172;28;20104;-81
2022/01/17 02:14:19;;;;;;;3.70;3.40;;;3.60;99.90;;;;;;5049902;28;20443;-80
2022/01/17 02:16:49;;;;;;;2.97;2.78;;;3.60;99.90;;;;;;5050145;28;20072;-81
2022/01/17 02:19:20;;;;;;;3.33;3.03;;;3.60;99.90;;;;;;5050245;28;20046;-83
2022/01/17 02:22:01;;;;;;;3.28;3.08;;;3.60;99.90;;;;;;5035387;28;20088;-81
2022/01/17 02:24:28;;;;;;;3.28;2.95;;;3.70;99.90;;;;;;5050120;28;20133;-80
2022/01/17 02:26:55;;;;;;;5.72;2.90;;;3.70;99.90;;;;;;5050174;28;20093;-81
2022/01/17 02:29:47;;;;;;;2.55;2.38;;;3.70;99.90;;;;;;5050033;28;20470;-81
2022/01/17 02:32:14;;;;;;;3.00;2.80;;;3.80;99.90;;;;;;5049722;28;20133;-80
2022/01/17 02:35:16;;;;;;;2.75;2.55;;;3.80;99.90;;;;;;5048176;28;20135;-80
2022/01/17 02:37:45;;;;;;;2.38;2.28;;;3.90;99.90;;;;;;5049943;28;20153;-81
2022/01/17 02:40:14;;;;;;;2.40;2.22;;;3.90;99.90;;;;;;5049608;28;20052;-80
2022/01/17 02:42:43;;;;;;;2.88;2.20;;;3.90;99.90;;;;;;5049770;28;20140;-80
2022/01/17 02:49:06;;;;;;;2.45;2.25;;;4.00;99.90;;;;;;5034626;28;20032;-80
2022/01/17 02:51:33;;;;;;;3.42;2.42;;;4.00;99.90;;;;;;5034160;28;20041;-81
2022/01/17 02:54:21;;;;;;;2.78;2.15;;;4.00;99.90;;;;;;5049556;28;20046;-80
2022/01/17 02:56:48;;;;;;;2.00;1.90;;;4.00;99.90;;;;;;5050842;28;20045;-80
2022/01/17 02:59:15;;;;;;;2.42;2.22;;;4.00;99.90;;;;;;5053325;28;20137;-80
2022/01/17 03:01:44;;;;;;;2.03;1.92;;;4.00;99.90;;;;;;5053077;28;20053;-80
2022/01/17 03:04:11;;;;;;;2.50;2.28;;;4.00;99.90;;;;;;5038312;28;20079;-81
2022/01/17 03:06:37;;;;;;;1.98;1.88;;;4.00;99.90;;;;;;5052792;28;20175;-81
2022/01/17 03:09:15;;;;;;;2.17;2.08;;;4.00;99.90;;;;;;5037738;28;20136;-80
2022/01/17 03:11:42;;;;;;;2.50;2.38;;;4.10;99.90;;;;;;5037988;28;20088;-80
2022/01/17 03:14:08;;;;;;;3.42;2.30;;;4.10;99.90;;;;;;5053856;28;20101;-81
2022/01/17 03:16:46;;;;;;;2.45;2.35;;;4.20;99.90;;;;;;5052708;28;20120;-80
2022/01/17 03:19:13;;;;;;;3.00;2.80;;;4.20;99.90;;;;;;5052354;28;20523;-80
2022/01/17 03:21:40;;;;;;;2.83;2.58;;;4.20;99.90;;;;;;5052600;28;20087;-80
2022/01/17 03:24:28;;;;;;;2.75;2.55;;;4.10;99.90;;;;;;5052800;28;20140;-80
2022/01/17 03:26:55;;;;;;;2.70;2.50;;;4.10;99.90;;;;;;5037160;28;20049;-80
2022/01/17 03:29:22;;;;;;;2.55;2.40;;;4.20;99.90;;;;;;5052197;28;20096;-80
2022/01/17 03:35:48;;;;;;;2.65;2.45;;;4.20;99.90;;;;;;5036833;28;20434;-80
2022/01/17 03:38:20;;;;;;;2.10;2.00;;;4.20;99.90;;;;;;5051854;28;20041;-80
2022/01/17 03:41:01;;;;;;;2.20;2.10;;;4.10;99.90;;;;;;5037017;28;20121;-80
2022/01/17 03:43:28;;;;;;;2.42;2.30;;;4.10;99.90;;;;;;5051924;28;20136;-80
2022/01/17 03:45:57;;;;;;;3.90;3.50;;;4.10;99.90;;;;;;5051711;28;20458;-80
2022/01/17 03:48:43;;;;;;;2.80;2.70;;;4.10;99.90;;;;;;5051734;28;20510;-80
2022/01/17 03:51:10;;;;;;;3.88;3.58;;;4.10;99.90;;;;;;5052093;28;20059;-80
2022/01/17 03:53:36;;;;;;;6.93;6.43;;;4.10;99.90;;;;;;5036526;28;20136;-80
2022/01/17 03:56:11;;;;;;;2.92;2.72;;;4.00;99.90;;;;;;5051555;28;20140;-80
2022/01/17 03:58:38;;;;;;;4.60;4.20;;;4.00;99.90;;;;;;5051500;28;20050;-80
2022/01/17 04:01:06;;;;;;;3.15;2.95;;;3.90;99.90;;;;;;5051840;28;20422;-80
2022/01/17 04:07:27;;;;;;;3.30;3.10;;;3.80;99.90;;;;;;5036469;28;20604;-81
2022/01/17 04:09:55;;;;;;;3.08;2.88;;;3.80;99.90;;;;;;5051781;28;20409;-80
2022/01/17 04:12:21;;;;;;;3.45;3.13;;;3.80;99.90;;;;;;5051902;28;20147;-81
2022/01/17 04:14:53;;;;;;;4.78;3.70;;;3.70;99.90;;;;;;5051349;28;20107;-80
2022/01/17 04:17:30;;;;;;;4.68;4.28;;;3.70;99.90;;;;;;5051255;28;20124;-80
2022/01/17 04:20:25;;;;;;;3.95;3.55;;;3.70;99.90;;;;;;5051464;28;20136;-80
2022/01/17 04:22:55;;;;;;;4.97;3.13;;;3.60;99.90;;;;;;5036228;28;20053;-80
2022/01/17 04:25:24;;;;;;;2.47;2.28;;;3.60;99.90;;;;;;5051071;28;20392;-80
2022/01/17 04:28:05;;;;;;;4.00;3.70;;;3.50;99.90;;;;;;5050835;28;20465;-81
2022/01/17 04:30:32;;;;;;;2.60;2.40;;;3.50;99.90;;;;;;5051002;28;20059;-80
2022/01/17 04:33:01;;;;;;;3.08;2.72;;;3.40;99.90;;;;;;5036033;28;20041;-80
2022/01/17 04:35:29;;;;;;;2.08;1.98;;;3.50;99.90;;;;;;5050635;28;20487;-80
2022/01/17 04:38:00;;;;;;;2.60;2.40;;;3.40;99.90;;;;;;5050806;28;20132;-80
2022/01/17 04:40:34;;;;;;;2.80;2.60;;;3.40;99.90;;;;;;5050856;28;20072;-80
2022/01/17 04:43:04;;;;;;;5.03;2.65;;;3.50;99.90;;;;;;5051122;28;20084;-80
2022/01/17 04:45:32;;;;;;;3.42;3.13;;;3.50;99.90;;;;;;5050889;28;20136;-80
2022/01/17 04:48:26;;;;;;;4.10;2.60;;;3.50;99.90;;;;;;5050529;28;20137;-80
2022/01/17 04:50:53;;;;;;;3.67;3.03;;;3.50;99.90;;;;;;5051175;28;20049;-80
2022/01/17 04:53:21;;;;;;;3.08;2.88;;;3.50;99.90;;;;;;5050590;28;20046;-80
2022/01/17 04:55:49;;;;;;;2.60;2.40;;;3.40;99.90;;;;;;5050416;28;20077;-81
2022/01/17 04:58:16;;;;;;;3.47;3.17;;;3.50;99.90;;;;;;5050399;28;20096;-80
2022/01/17 05:00:46;;;;;;;4.95;3.53;;;3.40;99.90;;;;;;5050623;28;20080;-80
2022/01/17 05:03:53;;;;;;;5.03;3.78;;;3.40;99.90;;;;;;5050411;28;20053;-80
2022/01/17 05:06:19;;;;;;;5.30;4.80;;;3.30;99.90;;;;;;5050298;28;20141;-80
2022/01/17 05:08:46;;;;;;;5.43;4.22;;;3.30;99.90;;;;;;5035325;28;20056;-80
2022/01/17 05:11:48;;;;;;;2.88;2.63;;;3.20;99.90;;;;;;5050673;28;20161;-80
2022/01/17 05:14:15;;;;;;;3.63;3.30;;;3.30;99.90;;;;;;5035351;28;20113;-80
2022/01/17 05:16:48;;;;;;;22.80;8.20;;;3.30;99.90;;;;;;5050576;28;20059;-80
2022/01/17 05:22:09;;;;;;;3.25;3.03;;;3.30;99.90;;;;;;5035460;28;20159;-80
2022/01/17 05:24:35;;;;;;;3.63;3.17;;;3.30;99.90;;;;;;5049907;28;20477;-80
2022/01/17 05:30:43;;;;;;;3.13;2.83;;;3.40;99.90;;;;;;5034691;28;20036;-79
2022/01/17 05:33:53;;;;;;;2.70;2.58;;;3.40;99.90;;;;;;5049068;28;20052;-80
2022/01/17 05:36:20;;;;;;;3.00;2.80;;;3.40;99.90;;;;;;5034399;28;20566;-80
2022/01/17 05:38:47;;;;;;;5.93;3.17;;;3.40;99.90;;;;;;5050093;28;20578;-80
2022/01/17 05:41:16;;;;;;;3.72;3.03;;;3.40;99.90;;;;;;5049968;28;20107;-80
2022/01/17 05:43:42;;;;;;;4.68;3.05;;;3.50;99.90;;;;;;5049452;28;20396;-80
2022/01/17 05:46:09;;;;;;;2.83;2.40;;;3.50;99.90;;;;;;5049857;28;20050;-80
2022/01/17 05:52:01;;;;;;;7.18;3.65;;;3.50;99.90;;;;;;5034542;28;20068;-80
2022/01/17 05:54:29;;;;;;;7.25;4.30;;;3.60;99.90;;;;;;5034316;28;20414;-80
2022/01/17 05:56:55;;;;;;;6.60;3.47;;;3.60;99.90;;;;;;5049285;28;20520;-80
2022/01/17 05:59:22;;;;;;;8.30;5.13;;;3.50;99.90;;;;;;5049716;28;20050;-80
2022/01/17 06:02:08;;;;;;;9.65;6.07;;;3.60;99.90;;;;;;5049533;28;20503;-80
2022/01/17 06:04:36;;;;;;;10.52;6.28;;;3.60;99.90;;;;;;5050196;28;20050;-80
2022/01/17 06:07:04;;;;;;;14.10;6.20;;;3.60;99.90;;;;;;5049448;28;20130;-80
2022/01/17 06:09:32;;;;;;;5.22;3.45;;;3.50;99.90;;;;;;5034091;28;20136;-80
2022/01/17 06:11:59;;;;;;;5.68;3.95;;;3.50;99.90;;;;;;5034504;28;20133;-80
2022/01/17 06:14:25;;;;;;;6.85;4.25;;;3.60;99.90;;;;;;5049813;28;20132;-80
2022/01/17 06:17:14;;;;;;;11.38;6.28;;;3.60;99.90;;;;;;5049183;28;20049;-80
2022/01/17 06:19:41;;;;;;;7.65;4.70;;;3.70;99.90;;;;;;5049256;28;20052;-80
2022/01/17 06:22:10;;;;;;;7.82;4.43;;;3.80;99.90;;;;;;5033974;28;20085;-80
2022/01/17 06:25:24;;;;;;;13.15;5.07;;;3.80;99.90;;;;;;5049156;28;20073;-81
2022/01/17 06:27:51;;;;;;;12.15;4.68;;;4.00;99.90;;;;;;5049010;28;20077;-80
2022/01/17 06:30:17;;;;;;;7.90;4.07;;;4.00;99.90;;;;;;5049408;28;20060;-80
2022/01/17 06:32:50;;;;;;;9.10;4.65;;;4.00;99.90;;;;;;5052892;28;20058;-80
2022/01/17 06:35:56;;;;;;;8.90;4.38;;;4.10;99.90;;;;;;5037256;28;20141;-80
2022/01/17 06:38:23;;;;;;;12.88;4.68;;;4.10;99.90;;;;;;5037906;28;20105;-80
2022/01/17 06:40:49;;;;;;;6.75;4.30;;;4.20;99.90;;;;;;5052895;28;20132;-81
2022/01/17 06:43:28;;;;;;;8.15;4.55;;;4.20;99.90;;;;;;5037224;28;20058;-80
2022/01/17 06:45:55;;;;;;;7.13;4.03;;;4.20;99.90;;;;;;5052704;28;20057;-80
2022/01/17 06:48:25;;;;;;;6.18;4.15;;;4.30;99.90;;;;;;5052393;28;20137;-80
2022/01/17 06:51:09;;;;;;;6.30;4.82;;;4.30;99.90;;;;;;5052205;28;20057;-80
2022/01/17 06:53:36;;;;;;;7.30;4.40;;;4.30;99.90;;;;;;5051794;28;20414;-80
2022/01/17 06:56:56;;;;;;;7.40;4.38;;;4.30;99.90;;;;;;5052310;28;20137;-80
2022/01/17 06:59:23;;;;;;;6.85;4.30;;;4.30;99.90;;;;;;5037381;28;20052;-80
2022/01/17 07:01:50;;;;;;;6.32;4.72;;;4.40;99.90;;;;;;5052674;28;20056;-80
2022/01/17 07:04:36;;;;;;;6.85;4.05;;;4.40;99.90;;;;;;5052558;28;20054;-80
2022/01/17 07:07:03;;;;;;;6.25;4.53;;;4.40;99.90;;;;;;5051940;28;20088;-80
2022/01/17 07:09:30;;;;;;;5.55;4.53;;;4.40;99.90;;;;;;5052016;28;20071;-80
2022/01/17 07:12:30;;;;;;;5.85;4.80;;;4.50;99.90;;;;;;5052306;28;20085;-80
2022/01/17 07:14:58;;;;;;;7.78;4.60;;;4.50;99.90;;;;;;5052221;28;20089;-80
2022/01/17 07:17:24;;;;;;;9.40;6.15;;;4.50;99.90;;;;;;5052197;28;20084;-80
2022/01/17 07:20:13;;;;;;;9.48;6.18;;;4.50;99.90;;;;;;5051907;28;20132;-80
2022/01/17 07:22:40;;;;;;;9.93;5.72;;;4.50;99.90;;;;;;5051620;28;20045;-80
2022/01/17 07:25:07;;;;;;;9.90;6.13;;;4.50;99.90;;;;;;5051698;28;20140;-80
2022/01/17 07:28:13;;;;;;;10.27;5.93;;;4.50;99.90;;;;;;5052070;28;20492;-80
2022/01/17 07:30:40;;;;;;;7.50;5.55;;;4.50;99.90;;;;;;5051503;28;20084;-80
2022/01/17 07:33:08;;;;;;;6.57;5.00;;;4.50;99.90;;;;;;5051432;28;20132;-80
2022/01/17 07:35:36;;;;;;;8.70;4.30;;;4.50;99.90;;;;;;5050845;28;20084;-80
2022/01/17 07:38:06;;;;;;;6.28;4.10;;;4.60;99.90;;;;;;5051964;28;20121;-80
2022/01/17 07:40:34;;;;;;;7.25;3.75;;;4.60;99.90;;;;;;5052017;28;20506;-80
2022/01/17 07:43:03;;;;;;;6.00;3.92;;;4.60;99.90;;;;;;5036500;28;20517;-80
2022/01/17 07:45:31;;;;;;;13.00;6.15;;;4.60;99.90;;;;;;5051875;28;20076;-80
2022/01/17 07:50:35;;;;;;;6.25;3.50;;;4.70;99.90;;;;;;5036669;28;20057;-80
2022/01/17 07:53:01;;;;;;;7.00;3.80;;;4.70;99.90;;;;;;5051689;28;20085;-80
2022/01/17 07:55:29;;;;;;;4.75;3.22;;;4.60;99.90;;;;;;5052000;28;20491;-80
2022/01/17 07:57:56;;;;;;;10.25;4.22;;;4.70;99.90;;;;;;5052226;28;20460;-83
2022/01/17 08:00:25;;;;;;;10.60;4.32;;;4.70;99.90;;;;;;5038784;28;20103;-84
2022/01/17 08:02:53;;;;;;;6.85;4.15;;;4.70;99.90;;;;;;5038208;28;20081;-84
2022/01/17 08:05:21;;;;;;;10.05;3.90;;;4.80;99.90;;;;;;5037871;28;20056;-84
2022/01/17 08:07:47;;;;;;;7.57;3.33;;;4.80;99.90;;;;;;5037600;28;20071;-84
2022/01/17 08:10:15;;;;;;;10.65;4.03;;;4.80;99.90;;;;;;5037378;28;20137;-84
2022/01/17 08:12:44;;;;;;;11.05;4.05;;;4.80;99.90;;;;;;5036054;28;20132;-84
2022/01/17 08:15:11;;;;;;;11.25;3.75;;;4.80;99.90;;;;;;5036570;28;20493;-84
2022/01/17 08:17:39;;;;;;;12.32;3.45;;;4.80;99.90;;;;;;5035552;28;20495;-84
2022/01/17 08:20:07;;;;;;;5.68;3.40;;;4.90;99.90;;;;;;5035461;28;20128;-84
2022/01/17 08:22:34;;;;;;;10.18;4.00;;;4.90;99.90;;;;;;5034972;28;20167;-84
2022/01/17 08:25:01;;;;;;;8.50;3.53;;;4.90;99.90;;;;;;5034568;28;20133;-83
2022/01/17 08:27:28;;;;;;;9.40;3.30;;;4.90;99.90;;;;;;5035009;28;20059;-83
2022/01/17 08:29:56;;;;;;;13.68;4.20;;;4.90;99.90;;;;;;5034595;28;20081;-84
2022/01/17 08:32:42;;;;;;;9.65;3.40;;;4.90;99.90;;;;;;5035045;28;20057;-84
2022/01/17 08:35:11;;;;;;;9.55;4.07;;;4.90;99.90;;;;;;5036981;28;20061;-84
2022/01/17 08:37:38;;;;;;;6.80;4.00;;;4.90;99.90;;;;;;5036630;28;20129;-84
2022/01/17 08:40:10;;;;;;;9.68;4.70;;;4.90;99.90;;;;;;5036821;28;20041;-84
2022/01/17 08:42:38;;;;;;;8.25;4.25;;;4.90;99.90;;;;;;5035972;28;20069;-84
2022/01/17 08:45:14;;;;;;;10.35;4.38;;;4.90;99.90;;;;;;5038474;28;20045;-84
2022/01/17 08:48:00;;;;;;;13.85;4.93;;;4.90;99.90;;;;;;5036450;28;20042;-84
2022/01/17 08:50:27;;;;;;;9.68;3.83;;;5.00;99.90;;;;;;5035047;28;20491;-84
2022/01/17 08:52:54;;;;;;;14.70;3.97;;;5.00;99.90;;;;;;5036285;28;20137;-84
2022/01/17 08:55:22;;;;;;;10.88;4.53;;;5.00;99.90;;;;;;5034911;28;20124;-84
2022/01/17 08:57:51;;;;;;;9.02;3.80;;;5.00;99.90;;;;;;5035224;28;20041;-84
2022/01/17 09:00:19;;;;;;;10.43;4.22;;;5.00;99.90;;;;;;5037096;28;20050;-84
2022/01/17 09:03:06;;;;;;;11.73;4.15;;;5.10;99.90;;;;;;5048307;28;20045;-84
2022/01/17 09:05:34;;;;;;;7.28;3.80;;;5.10;99.90;;;;;;5035772;28;20053;-84
2022/01/17 09:08:02;;;;;;;14.70;4.00;;;5.10;99.90;;;;;;5051355;28;20551;-84
2022/01/17 09:10:29;;;;;;;10.98;4.43;;;5.10;99.90;;;;;;5035182;28;20133;-84
2022/01/17 09:12:57;;;;;;;12.50;4.13;;;5.10;99.90;;;;;;5036066;28;20045;-84
2022/01/17 09:15:24;;;;;;;10.48;3.88;;;5.20;99.90;;;;;;5051384;28;20128;-84
2022/01/17 09:17:51;;;;;;;10.02;4.60;;;5.20;99.90;;;;;;5051478;28;20492;-84
2022/01/17 09:20:18;;;;;;;8.75;4.18;;;5.20;99.90;;;;;;5036401;28;20455;-84
2022/01/17 09:22:46;;;;;;;7.95;3.38;;;5.20;99.90;;;;;;5051128;28;20045;-84
2022/01/17 09:25:14;;;;;;;9.88;3.25;;;5.20;99.90;;;;;;5050697;28;20049;-84
2022/01/17 09:27:42;;;;;;;12.23;3.85;;;5.20;99.90;;;;;;5051283;28;20045;-84
2022/01/17 09:30:14;;;;;;;8.05;3.22;;;5.20;99.90;;;;;;5050894;28;20079;-84
2022/01/17 09:32:41;;;;;;;8.35;3.50;;;5.20;99.90;;;;;;5050901;28;20179;-85
2022/01/17 09:35:11;;;;;;;10.63;3.28;;;5.20;99.90;;;;;;5051246;28;20113;-85
2022/01/17 09:37:39;;;;;;;7.22;3.70;;;5.30;99.90;;;;;;5050966;28;20053;-84
2022/01/17 09:40:08;;;;;;;12.25;3.53;;;5.20;99.90;;;;;;5051139;28;20077;-84
2022/01/17 09:42:37;;;;;;;8.00;3.75;;;5.30;99.90;;;;;;5050858;28;20045;-84
2022/01/17 09:45:10;;;;;;;7.07;3.30;;;5.30;99.90;;;;;;5052067;28;20049;-85
2022/01/17 09:47:38;;;;;;;10.30;2.90;;;5.40;99.90;;;;;;5051727;28;20060;-84
2022/01/17 09:50:09;;;;;;;7.90;2.83;;;5.40;99.90;;;;;;5051240;28;20136;-84
2022/01/17 09:52:44;;;;;;;11.68;3.63;;;5.40;99.90;;;;;;5051504;28;20450;-84
2022/01/17 09:55:25;;;;;;;5.82;3.28;;;5.50;99.90;;;;;;5050734;28;20963;-84
2022/01/17 09:58:04;;;;;;;9.27;3.42;;;5.50;99.90;;;;;;5051201;28;20136;-85
2022/01/17 10:00:40;;;;;;;7.15;3.00;;;5.50;99.90;;;;;;5050438;28;20136;-84
2022/01/17 10:03:10;;;;;;;4.82;2.88;;;5.50;99.90;;;;;;5051032;28;20057;-87
2022/01/17 10:05:38;;;;;;;7.38;3.38;;;5.50;99.90;;;;;;5032675;28;20103;-83
2022/01/17 10:08:11;;;;;;;12.23;3.92;;;5.60;99.90;;;;;;5039727;28;20131;-83
2022/01/17 10:10:58;;;;;;;10.68;3.30;;;5.60;99.90;;;;;;5047552;28;20418;-85
2022/01/17 10:13:34;;;;;;;11.60;3.25;;;5.80;99.90;;;;;;5040974;28;20065;-86
2022/01/17 10:16:01;;;;;;;11.65;3.20;;;5.90;99.90;;;;;;5043449;28;20064;-85
2022/01/17 10:18:46;;;;;;;5.60;2.75;;;6.00;99.90;;;;;;5058870;28;20055;-85
2022/01/17 10:21:36;;;;;;;9.10;3.30;;;6.10;99.90;;;;;;5060972;28;20068;-85
2022/01/17 10:24:24;;;;;;;6.28;3.00;;;6.10;99.90;;;;;;5058869;28;20091;-85
2022/01/17 10:35:38;;;;;;;8.27;3.20;;;6.00;99.90;;;;;;5033675;28;20421;-83
2022/01/17 10:38:18;;;;;;;6.47;2.63;;;6.30;99.90;;;;;;5056557;28;20129;-85
2022/01/17 10:40:53;;;;;;;9.95;3.22;;;6.40;99.90;;;;;;5057108;28;20487;-83
2022/01/17 10:43:35;;;;;;;7.13;2.60;;;6.30;99.90;;;;;;5055363;28;20061;-84
2022/01/17 10:46:11;;;;;;;5.47;3.03;;;6.20;99.90;;;;;;5039911;28;20073;-84
2022/01/17 10:48:42;;;;;;;5.10;2.70;;;6.20;99.90;;;;;;5056672;28;20046;-84
2022/01/17 10:51:11;;;;;;;9.88;2.72;;;6.30;99.90;;;;;;5057515;28;20072;-84
2022/01/17 10:53:40;;;;;;;6.65;2.47;;;6.40;99.90;;;;;;5055377;28;20124;-84
2022/01/17 10:56:13;;;;;;;4.97;2.95;;;6.50;99.90;;;;;;5056098;28;20099;-85
2022/01/17 10:58:41;;;;;;;5.72;2.67;;;6.50;99.90;;;;;;5056642;28;20500;-85
2022/01/17 11:01:12;;;;;;;6.97;3.00;;;6.50;99.90;;;;;;5056588;28;20499;-84
2022/01/17 11:03:42;;;;;;;6.93;3.15;;;6.50;99.90;;;;;;5054294;28;20128;-83
2022/01/17 11:06:26;;;;;;;3.10;2.28;;;6.50;99.90;;;;;;5056150;28;20049;-80
2022/01/17 11:08:53;;;;;;;5.18;1.90;;;6.40;99.90;;;;;;5052471;28;20080;-80
2022/01/17 11:11:39;;;;;;;4.68;2.28;;;6.40;99.90;;;;;;5052498;28;20081;-80
2022/01/17 11:14:08;;;;;;;6.00;2.90;;;6.40;99.90;;;;;;5052454;28;20081;-81
2022/01/17 11:16:36;;;;;;;8.02;3.58;;;6.30;99.90;;;;;;5036863;28;20136;-80
2022/01/17 11:22:03;;;;;;;4.75;2.50;;;6.40;99.90;;;;;;5037810;28;20208;-80
2022/01/17 11:24:30;;;;;;;6.18;2.78;;;6.50;99.90;;;;;;5053001;28;20115;-80
2022/01/17 11:26:57;;;;;;;4.80;2.33;;;6.50;99.90;;;;;;5053672;28;20482;-82
2022/01/17 11:29:24;;;;;;;10.10;2.90;;;6.50;99.90;;;;;;5053217;28;20404;-82
2022/01/17 11:31:50;;;;;;;5.22;2.50;;;6.50;99.90;;;;;;5054608;28;20140;-83
2022/01/17 11:34:19;;;;;;;9.88;2.83;;;6.50;99.90;;;;;;5054316;28;20076;-83
2022/01/17 11:36:47;;;;;;;3.78;2.05;;;6.60;99.90;;;;;;5053825;28;20046;-81
2022/01/17 11:39:15;;;;;;;4.75;2.13;;;6.60;99.90;;;;;;5053851;28;20060;-83
2022/01/17 11:41:49;;;;;;;4.40;1.88;;;6.60;99.90;;;;;;5053592;28;20045;-82
2022/01/17 11:44:16;;;;;;;;;;;6.50;99.90;;;;;;5054068;28;20056;-83
2022/01/17 11:47:03;;;;;;;4.05;2.13;;;6.50;99.90;;;;;;5036517;28;19921;-83
2022/01/17 11:49:31;;;;;;;2.72;2.35;;;6.50;99.90;;;;;;5054966;28;20107;-83
2022/01/17 11:51:59;;;;;;;6.07;2.65;;;6.50;99.90;;;;;;5054254;28;20499;-83
2022/01/17 11:54:29;;;;;;;4.15;1.90;;;6.40;99.90;;;;;;5052983;28;20045;-82
2022/01/17 11:57:02;;;;;;;6.72;2.42;;;6.30;99.90;;;;;;5052573;28;20046;-82
2022/01/17 11:59:35;;;;;;;3.47;2.60;;;6.30;99.90;;;;;;5038330;28;20057;-83
2022/01/17 12:02:24;;;;;;;4.22;2.45;;;6.30;99.90;;;;;;5052394;28;20483;-83
2022/01/17 12:05:06;;;;;;;4.63;2.20;;;6.40;99.90;;;;;;5052947;28;20049;-82
2022/01/17 12:07:41;;;;;;;3.05;1.70;;;6.30;99.90;;;;;;5052750;28;20103;-82
2022/01/17 12:10:21;;;;;;;6.80;2.38;;;6.30;99.90;;;;;;5052693;28;20049;-83
2022/01/17 12:15:55;;;;;;;3.33;1.58;;;6.50;99.90;;;;;;5037710;28;20049;-83
2022/01/17 12:18:40;;;;;;;9.27;2.53;;;6.50;99.90;;;;;;5052841;28;20049;-83
2022/01/17 12:21:40;;;;;;;3.00;1.67;;;6.60;99.90;;;;;;5052741;28;20046;-82
2022/01/17 12:24:21;;;;;;;5.30;2.20;;;6.70;99.90;;;;;;5052501;28;20115;-83
2022/01/17 12:27:03;;;;;;;5.68;2.67;;;6.70;99.90;;;;;;5051535;28;20052;-83
2022/01/17 12:29:41;;;;;;;2.65;1.90;;;6.70;99.90;;;;;;5054675;28;20136;-83
2022/01/17 12:32:28;;;;;;;6.20;3.03;;;6.80;99.90;;;;;;5052888;28;20061;-82
2022/01/17 12:35:04;;;;;;;3.45;2.63;;;6.90;99.90;;;;;;5036259;28;20507;-82
2022/01/17 12:37:45;;;;;;;7.53;3.35;;;6.90;99.90;;;;;;5038047;28;20042;-83
2022/01/17 12:40:33;;;;;;;2.45;1.58;;;6.90;99.90;;;;;;5054301;28;20049;-84
2022/01/17 12:43:03;;;;;;;3.25;1.50;;;7.00;99.90;;;;;;5053773;28;20133;-84
2022/01/17 12:45:39;;;;;;;4.38;1.38;;;7.10;99.90;;;;;;5051889;28;20046;-84
2022/01/17 12:48:14;;;;;;;2.45;1.80;;;7.20;99.90;;;;;;5036509;28;20400;-83
2022/01/17 12:50:43;;;;;;;1.92;1.38;;;7.30;99.90;;;;;;5038222;28;20084;-84
2022/01/17 12:53:13;;;;;;;1.95;1.20;;;7.20;99.90;;;;;;5053894;28;20084;-84
2022/01/17 12:55:43;;;;;;;2.35;1.80;;;7.20;99.90;;;;;;5052128;28;20054;-84
2022/01/17 12:58:22;;;;;;;1.60;1.50;;;7.30;99.90;;;;;;5037019;28;20087;-84
2022/01/17 13:00:51;;;;;;;1.40;1.05;;;7.50;99.90;;;;;;5055261;28;20052;-83
2022/01/17 13:03:20;;;;;;;1.67;0.70;;;7.60;99.90;;;;;;5053965;28;20041;-84
2022/01/17 13:05:48;;;;;;;1.10;1.00;;;7.60;99.90;;;;;;5054727;28;20148;-84
2022/01/17 13:08:15;;;;;;;0.60;0.60;;;7.60;99.90;;;;;;5037998;28;20049;-80
2022/01/17 13:10:48;;;;;;;1.43;0.67;;;7.60;99.90;;;;;;5049687;28;20498;-82
2022/01/17 13:13:16;;;;;;;1.20;0.60;;;7.60;99.90;;;;;;5049705;28;20084;-81
2022/01/17 13:16:04;;;;;;;1.17;0.60;;;7.50;99.90;;;;;;5049343;28;20487;-82
2022/01/17 13:18:35;;;;;;;1.00;0.60;;;7.50;99.90;;;;;;5049158;28;20119;-81
2022/01/17 13:21:04;;;;;;;3.22;0.60;;;7.50;99.90;;;;;;5049109;28;20088;-81
2022/01/17 13:23:45;;;;;;;0.60;0.57;;;7.50;99.90;;;;;;5048908;28;20059;-79
2022/01/17 13:26:14;;;;;;;4.13;0.60;;;7.70;99.90;;;;;;5033960;28;20065;-80
2022/01/17 13:28:52;;;;;;;1.27;0.52;;;7.60;99.90;;;;;;5033847;28;20049;-81
2022/01/17 13:31:25;;;;;;;0.60;0.60;;;7.60;99.90;;;;;;5049360;28;20085;-81
2022/01/17 13:33:53;;;;;;;1.40;0.60;;;7.70;99.90;;;;;;5048782;28;20092;-81
2022/01/17 13:36:28;;;;;;;1.38;0.80;;;7.90;99.90;;;;;;5048886;28;20053;-81
2022/01/17 13:39:05;;;;;;;1.60;0.80;;;7.80;99.90;;;;;;5049024;28;20218;-81
2022/01/17 13:41:33;;;;;;;1.42;0.90;;;7.70;99.90;;;;;;5047994;28;20557;-80
2022/01/17 13:44:00;;;;;;;1.38;0.98;;;7.70;99.90;;;;;;5049050;28;20045;-80
2022/01/17 13:46:27;;;;;;;1.85;0.98;;;7.70;99.90;;;;;;5048860;28;20045;-80
2022/01/17 13:48:54;;;;;;;1.17;0.88;;;7.60;99.90;;;;;;5049345;28;20191;-80
2022/01/17 13:51:25;;;;;;;1.10;0.52;;;7.60;99.90;;;;;;5048765;28;20410;-80
2022/01/17 13:53:54;;;;;;;0.88;0.70;;;7.60;99.90;;;;;;5033370;28;20045;-82
2022/01/17 13:56:21;;;;;;;1.67;0.77;;;7.70;99.90;;;;;;5048505;28;20053;-80
2022/01/17 13:58:53;;;;;;;2.78;0.70;;;7.80;99.90;;;;;;5033085;28;20041;-81
2022/01/17 14:01:20;;;;;;;3.35;0.70;;;7.90;99.90;;;;;;5049303;28;20513;-80
2022/01/17 14:03:47;;;;;;;0.63;0.63;;;7.70;99.90;;;;;;5048277;28;20053;-80
2022/01/17 14:06:16;;;;;;;1.80;0.80;;;7.60;99.90;;;;;;5048396;28;20491;-80
2022/01/17 14:08:45;;;;;;;1.77;0.60;;;7.60;99.90;;;;;;5049096;28;20487;-80
2022/01/17 14:11:14;;;;;;;0.88;0.60;;;7.50;99.90;;;;;;5048506;28;20107;-81
2022/01/17 14:13:46;;;;;;;1.38;0.60;;;7.40;99.90;;;;;;5033784;28;20133;-80
2022/01/17 14:16:33;;;;;;;1.02;0.68;;;7.30;99.90;;;;;;5048856;28;20045;-80